sensor_id;sensor_type;location;lat;lon;timestamp;P1;durP1;ratioP1;P2;durP2;ratioP2
80270;SDS011;69573;45.560;10.200;2023-07-22T00:00:19;6.65;;;6.05;;
80270;SDS011;69573;45.560;10.200;2023-07-22T00:02:47;9.27;;;5.22;;
80270;SDS011;69573;45.560;10.200;2023-07-22T00:05:14;6.85;;;5.28;;
80270;SDS011;69573;45.560;10.200;2023-07-22T00:07:40;8.35;;;5.75;;
80270;SDS011;69573;45.560;10.200;2023-07-22T00:10:07;7.60;;;5.50;;
80270;SDS011;69573;45.560;10.200;2023-07-22T00:12:34;8.70;;;5.82;;
80270;SDS011;69573;45.560;10.200;2023-07-22T00:15:01;7.10;;;5.57;;
80270;SDS011;69573;45.560;10.200;2023-07-22T00:17:27;5.93;;;5.10;;
80270;SDS011;69573;45.560;10.200;2023-07-22T00:19:53;7.75;;;5.40;;
80270;SDS011;69573;45.560;10.200;2023-07-22T00:22:20;7.00;;;5.60;;
80270;SDS011;69573;45.560;10.200;2023-07-22T00:24:47;7.88;;;5.55;;
80270;SDS011;69573;45.560;10.200;2023-07-22T00:27:14;6.38;;;5.72;;
80270;SDS011;69573;45.560;10.200;2023-07-22T00:29:40;6.63;;;5.88;;
80270;SDS011;69573;45.560;10.200;2023-07-22T00:32:07;7.60;;;5.20;;
80270;SDS011;69573;45.560;10.200;2023-07-22T00:34:34;7.32;;;5.32;;
80270;SDS011;69573;45.560;10.200;2023-07-22T00:37:00;5.40;;;4.90;;
80270;SDS011;69573;45.560;10.200;2023-07-22T00:39:26;6.30;;;5.15;;
80270;SDS011;69573;45.560;10.200;2023-07-22T00:41:53;5.75;;;5.03;;
80270;SDS011;69573;45.560;10.200;2023-07-22T00:44:19;6.00;;;5.40;;
80270;SDS011;69573;45.560;10.200;2023-07-22T00:46:45;6.18;;;5.55;;
80270;SDS011;69573;45.560;10.200;2023-07-22T00:49:12;5.35;;;4.78;;
80270;SDS011;69573;45.560;10.200;2023-07-22T00:51:40;5.85;;;5.30;;
80270;SDS011;69573;45.560;10.200;2023-07-22T00:54:06;5.65;;;5.10;;
80270;SDS011;69573;45.560;10.200;2023-07-22T00:56:33;8.15;;;5.78;;
80270;SDS011;69573;45.560;10.200;2023-07-22T00:59:02;7.93;;;5.20;;
80270;SDS011;69573;45.560;10.200;2023-07-22T01:01:28;5.95;;;5.35;;
80270;SDS011;69573;45.560;10.200;2023-07-22T01:03:54;6.03;;;5.43;;
80270;SDS011;69573;45.560;10.200;2023-07-22T01:06:21;5.90;;;5.30;;
80270;SDS011;69573;45.560;10.200;2023-07-22T01:08:48;8.93;;;5.45;;
80270;SDS011;69573;45.560;10.200;2023-07-22T01:11:14;7.55;;;5.43;;
80270;SDS011;69573;45.560;10.200;2023-07-22T01:13:41;6.25;;;5.60;;
80270;SDS011;69573;45.560;10.200;2023-07-22T01:16:08;5.88;;;4.70;;
80270;SDS011;69573;45.560;10.200;2023-07-22T01:18:34;5.78;;;5.18;;
80270;SDS011;69573;45.560;10.200;2023-07-22T01:21:01;7.28;;;5.38;;
80270;SDS011;69573;45.560;10.200;2023-07-22T01:23:27;6.07;;;5.20;;
80270;SDS011;69573;45.560;10.200;2023-07-22T01:25:54;8.68;;;5.68;;
80270;SDS011;69573;45.560;10.200;2023-07-22T01:28:20;6.53;;;5.93;;
80270;SDS011;69573;45.560;10.200;2023-07-22T01:30:47;7.10;;;5.55;;
80270;SDS011;69573;45.560;10.200;2023-07-22T01:33:14;9.15;;;5.38;;
80270;SDS011;69573;45.560;10.200;2023-07-22T01:35:40;5.78;;;5.10;;
80270;SDS011;69573;45.560;10.200;2023-07-22T01:38:07;6.68;;;4.95;;
80270;SDS011;69573;45.560;10.200;2023-07-22T01:40:33;6.53;;;5.25;;
80270;SDS011;69573;45.560;10.200;2023-07-22T01:42:59;6.45;;;4.70;;
80270;SDS011;69573;45.560;10.200;2023-07-22T01:45:26;7.75;;;5.38;;
80270;SDS011;69573;45.560;10.200;2023-07-22T01:47:52;7.20;;;4.93;;
80270;SDS011;69573;45.560;10.200;2023-07-22T01:50:19;6.70;;;4.95;;
80270;SDS011;69573;45.560;10.200;2023-07-22T01:52:46;7.43;;;5.50;;
80270;SDS011;69573;45.560;10.200;2023-07-22T01:55:12;8.30;;;5.80;;
80270;SDS011;69573;45.560;10.200;2023-07-22T01:57:38;7.63;;;5.72;;
80270;SDS011;69573;45.560;10.200;2023-07-22T02:00:05;8.13;;;5.30;;
80270;SDS011;69573;45.560;10.200;2023-07-22T02:02:33;7.20;;;5.70;;
80270;SDS011;69573;45.560;10.200;2023-07-22T02:04:59;5.88;;;5.20;;
80270;SDS011;69573;45.560;10.200;2023-07-22T02:07:26;6.80;;;5.18;;
80270;SDS011;69573;45.560;10.200;2023-07-22T02:09:54;5.47;;;4.90;;
80270;SDS011;69573;45.560;10.200;2023-07-22T02:12:20;9.18;;;5.25;;
80270;SDS011;69573;45.560;10.200;2023-07-22T02:14:47;6.28;;;4.93;;
80270;SDS011;69573;45.560;10.200;2023-07-22T02:17:13;6.07;;;5.13;;
80270;SDS011;69573;45.560;10.200;2023-07-22T02:19:39;6.60;;;5.32;;
80270;SDS011;69573;45.560;10.200;2023-07-22T02:22:06;7.10;;;5.07;;
80270;SDS011;69573;45.560;10.200;2023-07-22T02:24:33;6.40;;;5.13;;
80270;SDS011;69573;45.560;10.200;2023-07-22T02:26:59;7.40;;;5.38;;
80270;SDS011;69573;45.560;10.200;2023-07-22T02:29:26;5.95;;;5.38;;
80270;SDS011;69573;45.560;10.200;2023-07-22T02:31:52;6.47;;;4.85;;
80270;SDS011;69573;45.560;10.200;2023-07-22T02:34:19;5.75;;;5.07;;
80270;SDS011;69573;45.560;10.200;2023-07-22T02:36:45;5.40;;;4.90;;
80270;SDS011;69573;45.560;10.200;2023-07-22T02:39:11;6.30;;;5.20;;
80270;SDS011;69573;45.560;10.200;2023-07-22T02:41:38;6.10;;;5.40;;
80270;SDS011;69573;45.560;10.200;2023-07-22T02:44:04;6.60;;;5.35;;
80270;SDS011;69573;45.560;10.200;2023-07-22T02:46:31;7.25;;;5.50;;
80270;SDS011;69573;45.560;10.200;2023-07-22T02:48:58;8.25;;;5.00;;
80270;SDS011;69573;45.560;10.200;2023-07-22T02:51:24;7.05;;;5.28;;
80270;SDS011;69573;45.560;10.200;2023-07-22T02:53:51;7.07;;;5.78;;
80270;SDS011;69573;45.560;10.200;2023-07-22T02:56:17;5.80;;;4.93;;
80270;SDS011;69573;45.560;10.200;2023-07-22T02:58:44;6.65;;;4.90;;
80270;SDS011;69573;45.560;10.200;2023-07-22T03:01:11;8.38;;;5.07;;
80270;SDS011;69573;45.560;10.200;2023-07-22T03:03:37;7.68;;;5.93;;
80270;SDS011;69573;45.560;10.200;2023-07-22T03:06:05;8.27;;;5.68;;
80270;SDS011;69573;45.560;10.200;2023-07-22T03:08:33;6.80;;;5.13;;
80270;SDS011;69573;45.560;10.200;2023-07-22T03:11:00;5.82;;;4.95;;
80270;SDS011;69573;45.560;10.200;2023-07-22T03:13:26;7.88;;;5.47;;
80270;SDS011;69573;45.560;10.200;2023-07-22T03:15:55;5.53;;;5.00;;
80270;SDS011;69573;45.560;10.200;2023-07-22T03:18:21;8.30;;;5.35;;
80270;SDS011;69573;45.560;10.200;2023-07-22T03:20:48;7.32;;;4.93;;
80270;SDS011;69573;45.560;10.200;2023-07-22T03:23:14;6.72;;;4.95;;
80270;SDS011;69573;45.560;10.200;2023-07-22T03:25:40;7.78;;;5.40;;
80270;SDS011;69573;45.560;10.200;2023-07-22T03:28:06;5.28;;;4.80;;
80270;SDS011;69573;45.560;10.200;2023-07-22T03:30:33;8.15;;;5.30;;
80270;SDS011;69573;45.560;10.200;2023-07-22T03:33:00;6.20;;;5.13;;
80270;SDS011;69573;45.560;10.200;2023-07-22T03:35:26;5.72;;;5.00;;
80270;SDS011;69573;45.560;10.200;2023-07-22T03:37:53;5.78;;;5.07;;
80270;SDS011;69573;45.560;10.200;2023-07-22T03:40:19;6.03;;;5.50;;
80270;SDS011;69573;45.560;10.200;2023-07-22T03:42:47;6.00;;;5.40;;
80270;SDS011;69573;45.560;10.200;2023-07-22T03:45:14;6.63;;;5.00;;
80270;SDS011;69573;45.560;10.200;2023-07-22T03:47:41;5.55;;;4.97;;
80270;SDS011;69573;45.560;10.200;2023-07-22T03:50:07;6.15;;;5.13;;
80270;SDS011;69573;45.560;10.200;2023-07-22T03:52:34;5.63;;;5.00;;
80270;SDS011;69573;45.560;10.200;2023-07-22T03:55:00;6.30;;;5.70;;
80270;SDS011;69573;45.560;10.200;2023-07-22T03:57:27;7.43;;;5.75;;
80270;SDS011;69573;45.560;10.200;2023-07-22T03:59:54;6.22;;;5.32;;
80270;SDS011;69573;45.560;10.200;2023-07-22T04:02:21;5.70;;;5.05;;
80270;SDS011;69573;45.560;10.200;2023-07-22T04:04:48;5.65;;;5.00;;
80270;SDS011;69573;45.560;10.200;2023-07-22T04:07:14;6.85;;;5.85;;
80270;SDS011;69573;45.560;10.200;2023-07-22T04:09:40;7.55;;;5.53;;
80270;SDS011;69573;45.560;10.200;2023-07-22T04:12:07;6.13;;;5.53;;
80270;SDS011;69573;45.560;10.200;2023-07-22T04:14:33;5.50;;;4.93;;
80270;SDS011;69573;45.560;10.200;2023-07-22T04:16:59;8.75;;;5.40;;
80270;SDS011;69573;45.560;10.200;2023-07-22T04:19:26;7.85;;;5.63;;
80270;SDS011;69573;45.560;10.200;2023-07-22T04:21:52;8.32;;;5.65;;
80270;SDS011;69573;45.560;10.200;2023-07-22T04:24:20;7.70;;;5.53;;
80270;SDS011;69573;45.560;10.200;2023-07-22T04:26:46;6.28;;;5.20;;
80270;SDS011;69573;45.560;10.200;2023-07-22T04:29:12;7.60;;;5.50;;
80270;SDS011;69573;45.560;10.200;2023-07-22T04:31:39;6.72;;;5.63;;
80270;SDS011;69573;45.560;10.200;2023-07-22T04:34:05;7.45;;;5.78;;
80270;SDS011;69573;45.560;10.200;2023-07-22T04:36:32;6.30;;;5.57;;
80270;SDS011;69573;45.560;10.200;2023-07-22T04:38:58;7.20;;;5.30;;
80270;SDS011;69573;45.560;10.200;2023-07-22T04:41:25;6.65;;;5.50;;
80270;SDS011;69573;45.560;10.200;2023-07-22T04:43:51;7.20;;;5.38;;
80270;SDS011;69573;45.560;10.200;2023-07-22T04:46:18;7.10;;;4.78;;
80270;SDS011;69573;45.560;10.200;2023-07-22T04:48:45;7.38;;;4.80;;
80270;SDS011;69573;45.560;10.200;2023-07-22T04:51:11;7.10;;;4.60;;
80270;SDS011;69573;45.560;10.200;2023-07-22T04:53:37;5.40;;;4.50;;
80270;SDS011;69573;45.560;10.200;2023-07-22T04:56:04;6.47;;;5.00;;
80270;SDS011;69573;45.560;10.200;2023-07-22T04:58:31;6.10;;;5.53;;
80270;SDS011;69573;45.560;10.200;2023-07-22T05:00:58;5.53;;;4.90;;
80270;SDS011;69573;45.560;10.200;2023-07-22T05:03:24;5.70;;;5.20;;
80270;SDS011;69573;45.560;10.200;2023-07-22T05:05:52;7.90;;;5.47;;
80270;SDS011;69573;45.560;10.200;2023-07-22T05:08:18;5.53;;;5.03;;
80270;SDS011;69573;45.560;10.200;2023-07-22T05:10:44;11.27;;;5.50;;
80270;SDS011;69573;45.560;10.200;2023-07-22T05:13:10;7.32;;;5.20;;
80270;SDS011;69573;45.560;10.200;2023-07-22T05:15:37;7.03;;;5.07;;
80270;SDS011;69573;45.560;10.200;2023-07-22T05:18:03;6.47;;;4.90;;
80270;SDS011;69573;45.560;10.200;2023-07-22T05:20:29;7.40;;;5.30;;
80270;SDS011;69573;45.560;10.200;2023-07-22T05:22:56;7.13;;;5.10;;
80270;SDS011;69573;45.560;10.200;2023-07-22T05:25:22;7.10;;;5.18;;
80270;SDS011;69573;45.560;10.200;2023-07-22T05:27:49;5.75;;;4.95;;
80270;SDS011;69573;45.560;10.200;2023-07-22T05:30:16;8.25;;;5.68;;
80270;SDS011;69573;45.560;10.200;2023-07-22T05:32:42;8.10;;;5.38;;
80270;SDS011;69573;45.560;10.200;2023-07-22T05:35:09;6.78;;;5.38;;
80270;SDS011;69573;45.560;10.200;2023-07-22T05:37:35;7.57;;;5.45;;
80270;SDS011;69573;45.560;10.200;2023-07-22T05:40:02;8.55;;;5.75;;
80270;SDS011;69573;45.560;10.200;2023-07-22T05:42:28;5.90;;;5.40;;
80270;SDS011;69573;45.560;10.200;2023-07-22T05:44:55;6.38;;;4.90;;
80270;SDS011;69573;45.560;10.200;2023-07-22T05:47:22;6.63;;;4.97;;
80270;SDS011;69573;45.560;10.200;2023-07-22T05:49:48;9.13;;;5.40;;
80270;SDS011;69573;45.560;10.200;2023-07-22T05:52:14;7.25;;;5.28;;
80270;SDS011;69573;45.560;10.200;2023-07-22T05:54:41;7.97;;;5.05;;
80270;SDS011;69573;45.560;10.200;2023-07-22T05:57:07;7.75;;;5.13;;
80270;SDS011;69573;45.560;10.200;2023-07-22T05:59:34;6.28;;;4.47;;
80270;SDS011;69573;45.560;10.200;2023-07-22T06:02:04;6.75;;;4.80;;
80270;SDS011;69573;45.560;10.200;2023-07-22T06:04:31;7.00;;;4.65;;
80270;SDS011;69573;45.560;10.200;2023-07-22T06:06:57;5.65;;;5.15;;
80270;SDS011;69573;45.560;10.200;2023-07-22T06:09:24;9.02;;;5.15;;
80270;SDS011;69573;45.560;10.200;2023-07-22T06:11:51;4.95;;;4.55;;
80270;SDS011;69573;45.560;10.200;2023-07-22T06:14:17;5.07;;;4.57;;
80270;SDS011;69573;45.560;10.200;2023-07-22T06:16:44;6.35;;;4.32;;
80270;SDS011;69573;45.560;10.200;2023-07-22T06:19:10;6.60;;;4.03;;
80270;SDS011;69573;45.560;10.200;2023-07-22T06:21:37;8.13;;;4.97;;
80270;SDS011;69573;45.560;10.200;2023-07-22T06:24:04;6.35;;;4.72;;
80270;SDS011;69573;45.560;10.200;2023-07-22T06:26:30;4.80;;;4.30;;
80270;SDS011;69573;45.560;10.200;2023-07-22T06:28:57;4.95;;;4.30;;
80270;SDS011;69573;45.560;10.200;2023-07-22T06:31:23;9.07;;;4.22;;
80270;SDS011;69573;45.560;10.200;2023-07-22T06:33:50;5.28;;;4.70;;
80270;SDS011;69573;45.560;10.200;2023-07-22T06:36:16;5.43;;;4.55;;
80270;SDS011;69573;45.560;10.200;2023-07-22T06:38:43;5.97;;;4.55;;
80270;SDS011;69573;45.560;10.200;2023-07-22T06:41:09;5.03;;;4.53;;
80270;SDS011;69573;45.560;10.200;2023-07-22T06:43:36;8.00;;;4.80;;
80270;SDS011;69573;45.560;10.200;2023-07-22T06:46:03;6.78;;;4.78;;
80270;SDS011;69573;45.560;10.200;2023-07-22T06:48:29;7.35;;;4.85;;
80270;SDS011;69573;45.560;10.200;2023-07-22T06:50:56;6.05;;;4.25;;
80270;SDS011;69573;45.560;10.200;2023-07-22T06:53:23;6.93;;;4.60;;
80270;SDS011;69573;45.560;10.200;2023-07-22T06:55:50;4.93;;;4.47;;
80270;SDS011;69573;45.560;10.200;2023-07-22T06:58:16;7.63;;;4.80;;
80270;SDS011;69573;45.560;10.200;2023-07-22T07:00:43;5.95;;;4.85;;
80270;SDS011;69573;45.560;10.200;2023-07-22T07:03:10;6.55;;;4.70;;
80270;SDS011;69573;45.560;10.200;2023-07-22T07:05:36;4.85;;;4.30;;
80270;SDS011;69573;45.560;10.200;2023-07-22T07:08:07;6.88;;;4.53;;
80270;SDS011;69573;45.560;10.200;2023-07-22T07:10:38;7.72;;;4.18;;
80270;SDS011;69573;45.560;10.200;2023-07-22T07:13:04;5.35;;;3.90;;
80270;SDS011;69573;45.560;10.200;2023-07-22T07:15:31;5.88;;;4.25;;
80270;SDS011;69573;45.560;10.200;2023-07-22T07:17:58;5.90;;;3.88;;
80270;SDS011;69573;45.560;10.200;2023-07-22T07:20:25;4.20;;;3.80;;
80270;SDS011;69573;45.560;10.200;2023-07-22T07:22:51;4.18;;;3.78;;
80270;SDS011;69573;45.560;10.200;2023-07-22T07:25:17;5.22;;;4.13;;
80270;SDS011;69573;45.560;10.200;2023-07-22T07:27:44;4.93;;;3.33;;
80270;SDS011;69573;45.560;10.200;2023-07-22T07:30:11;5.28;;;3.08;;
80270;SDS011;69573;45.560;10.200;2023-07-22T07:32:37;3.90;;;3.55;;
80270;SDS011;69573;45.560;10.200;2023-07-22T07:35:04;5.88;;;3.22;;
80270;SDS011;69573;45.560;10.200;2023-07-22T07:37:31;3.70;;;3.25;;
80270;SDS011;69573;45.560;10.200;2023-07-22T07:39:57;4.43;;;3.42;;
80270;SDS011;69573;45.560;10.200;2023-07-22T07:42:27;7.45;;;4.32;;
80270;SDS011;69573;45.560;10.200;2023-07-22T07:44:54;3.88;;;3.53;;
80270;SDS011;69573;45.560;10.200;2023-07-22T07:47:21;5.00;;;4.25;;
80270;SDS011;69573;45.560;10.200;2023-07-22T07:49:47;7.72;;;4.43;;
80270;SDS011;69573;45.560;10.200;2023-07-22T07:52:14;5.32;;;3.90;;
80270;SDS011;69573;45.560;10.200;2023-07-22T07:54:41;6.13;;;4.28;;
80270;SDS011;69573;45.560;10.200;2023-07-22T07:57:07;4.82;;;4.22;;
80270;SDS011;69573;45.560;10.200;2023-07-22T07:59:34;4.90;;;4.35;;
80270;SDS011;69573;45.560;10.200;2023-07-22T08:02:00;4.65;;;3.95;;
80270;SDS011;69573;45.560;10.200;2023-07-22T08:04:26;4.40;;;4.00;;
80270;SDS011;69573;45.560;10.200;2023-07-22T08:06:53;4.70;;;4.30;;
80270;SDS011;69573;45.560;10.200;2023-07-22T08:09:19;5.50;;;3.60;;
80270;SDS011;69573;45.560;10.200;2023-07-22T08:11:45;4.55;;;3.38;;
80270;SDS011;69573;45.560;10.200;2023-07-22T08:14:12;3.50;;;3.20;;
80270;SDS011;69573;45.560;10.200;2023-07-22T08:16:39;3.65;;;2.40;;
80270;SDS011;69573;45.560;10.200;2023-07-22T08:19:05;2.80;;;2.35;;
80270;SDS011;69573;45.560;10.200;2023-07-22T08:21:32;3.72;;;3.00;;
80270;SDS011;69573;45.560;10.200;2023-07-22T08:23:58;2.53;;;2.33;;
80270;SDS011;69573;45.560;10.200;2023-07-22T08:26:25;2.80;;;2.58;;
80270;SDS011;69573;45.560;10.200;2023-07-22T08:28:51;4.07;;;2.78;;
80270;SDS011;69573;45.560;10.200;2023-07-22T08:31:18;3.00;;;2.67;;
80270;SDS011;69573;45.560;10.200;2023-07-22T08:33:44;4.25;;;2.42;;
80270;SDS011;69573;45.560;10.200;2023-07-22T08:36:10;2.60;;;2.40;;
80270;SDS011;69573;45.560;10.200;2023-07-22T08:38:37;4.88;;;2.42;;
80270;SDS011;69573;45.560;10.200;2023-07-22T08:41:03;3.08;;;2.78;;
80270;SDS011;69573;45.560;10.200;2023-07-22T08:43:29;2.22;;;2.03;;
80270;SDS011;69573;45.560;10.200;2023-07-22T08:45:56;5.15;;;2.85;;
80270;SDS011;69573;45.560;10.200;2023-07-22T08:48:26;3.58;;;2.38;;
80270;SDS011;69573;45.560;10.200;2023-07-22T08:51:02;3.58;;;2.40;;
80270;SDS011;69573;45.560;10.200;2023-07-22T08:53:31;2.35;;;2.08;;
80270;SDS011;69573;45.560;10.200;2023-07-22T08:56:00;2.90;;;2.63;;
80270;SDS011;69573;45.560;10.200;2023-07-22T08:58:27;2.42;;;2.17;;
80270;SDS011;69573;45.560;10.200;2023-07-22T09:00:54;5.47;;;2.55;;
80270;SDS011;69573;45.560;10.200;2023-07-22T09:03:21;3.45;;;2.38;;
80270;SDS011;69573;45.560;10.200;2023-07-22T09:05:47;3.90;;;2.75;;
80270;SDS011;69573;45.560;10.200;2023-07-22T09:08:14;5.70;;;2.70;;
80270;SDS011;69573;45.560;10.200;2023-07-22T09:10:43;3.13;;;2.77;;
80270;SDS011;69573;45.560;10.200;2023-07-22T09:13:09;2.90;;;2.60;;
80270;SDS011;69573;45.560;10.200;2023-07-22T09:15:37;4.10;;;2.80;;
80270;SDS011;69573;45.560;10.200;2023-07-22T09:18:04;3.15;;;2.60;;
80270;SDS011;69573;45.560;10.200;2023-07-22T09:20:30;3.13;;;2.60;;
80270;SDS011;69573;45.560;10.200;2023-07-22T09:22:57;3.05;;;2.65;;
80270;SDS011;69573;45.560;10.200;2023-07-22T09:25:25;3.55;;;2.40;;
80270;SDS011;69573;45.560;10.200;2023-07-22T09:27:53;2.55;;;2.35;;
80270;SDS011;69573;45.560;10.200;2023-07-22T09:32:49;5.25;;;2.97;;
80270;SDS011;69573;45.560;10.200;2023-07-22T09:35:15;4.50;;;2.50;;
80270;SDS011;69573;45.560;10.200;2023-07-22T09:37:42;3.60;;;2.75;;
80270;SDS011;69573;45.560;10.200;2023-07-22T09:42:53;3.97;;;2.60;;
80270;SDS011;69573;45.560;10.200;2023-07-22T09:45:35;3.03;;;2.67;;
80270;SDS011;69573;45.560;10.200;2023-07-22T09:48:03;5.75;;;2.70;;
80270;SDS011;69573;45.560;10.200;2023-07-22T09:50:30;3.70;;;2.60;;
80270;SDS011;69573;45.560;10.200;2023-07-22T09:52:57;3.70;;;2.47;;
80270;SDS011;69573;45.560;10.200;2023-07-22T09:55:25;4.75;;;2.88;;
80270;SDS011;69573;45.560;10.200;2023-07-22T09:57:53;4.90;;;2.95;;
80270;SDS011;69573;45.560;10.200;2023-07-22T10:00:20;4.43;;;2.85;;
80270;SDS011;69573;45.560;10.200;2023-07-22T10:02:47;3.90;;;2.67;;
80270;SDS011;69573;45.560;10.200;2023-07-22T10:05:15;3.95;;;2.45;;
80270;SDS011;69573;45.560;10.200;2023-07-22T10:07:46;3.45;;;2.97;;
80270;SDS011;69573;45.560;10.200;2023-07-22T10:10:15;3.40;;;2.83;;
80270;SDS011;69573;45.560;10.200;2023-07-22T10:12:41;6.55;;;2.80;;
80270;SDS011;69573;45.560;10.200;2023-07-22T10:15:09;3.90;;;2.50;;
80270;SDS011;69573;45.560;10.200;2023-07-22T10:17:36;4.97;;;3.17;;
80270;SDS011;69573;45.560;10.200;2023-07-22T10:20:02;3.00;;;2.70;;
80270;SDS011;69573;45.560;10.200;2023-07-22T10:22:34;3.17;;;2.85;;
80270;SDS011;69573;45.560;10.200;2023-07-22T10:25:01;6.18;;;3.25;;
80270;SDS011;69573;45.560;10.200;2023-07-22T10:27:30;4.10;;;2.58;;
80270;SDS011;69573;45.560;10.200;2023-07-22T10:29:56;5.97;;;3.60;;
80270;SDS011;69573;45.560;10.200;2023-07-22T10:32:23;5.63;;;3.00;;
80270;SDS011;69573;45.560;10.200;2023-07-22T10:34:49;4.47;;;3.05;;
80270;SDS011;69573;45.560;10.200;2023-07-22T10:37:17;5.95;;;3.00;;
80270;SDS011;69573;45.560;10.200;2023-07-22T10:39:44;3.88;;;2.53;;
80270;SDS011;69573;45.560;10.200;2023-07-22T10:42:16;3.28;;;2.97;;
80270;SDS011;69573;45.560;10.200;2023-07-22T10:44:49;3.35;;;3.05;;
80270;SDS011;69573;45.560;10.200;2023-07-22T10:47:30;3.50;;;3.20;;
80270;SDS011;69573;45.560;10.200;2023-07-22T10:49:58;4.15;;;2.78;;
80270;SDS011;69573;45.560;10.200;2023-07-22T10:52:41;3.58;;;3.25;;
80270;SDS011;69573;45.560;10.200;2023-07-22T10:55:14;3.95;;;3.47;;
80270;SDS011;69573;45.560;10.200;2023-07-22T10:57:47;4.07;;;3.40;;
80270;SDS011;69573;45.560;10.200;2023-07-22T11:00:18;4.57;;;3.17;;
80270;SDS011;69573;45.560;10.200;2023-07-22T11:02:47;5.20;;;3.10;;
80270;SDS011;69573;45.560;10.200;2023-07-22T11:05:16;4.95;;;3.25;;
80270;SDS011;69573;45.560;10.200;2023-07-22T11:07:42;5.35;;;3.22;;
80270;SDS011;69573;45.560;10.200;2023-07-22T11:10:13;5.15;;;3.92;;
80270;SDS011;69573;45.560;10.200;2023-07-22T11:12:39;4.97;;;3.40;;
80270;SDS011;69573;45.560;10.200;2023-07-22T11:15:08;4.13;;;3.72;;
80270;SDS011;69573;45.560;10.200;2023-07-22T11:17:35;5.38;;;3.22;;
80270;SDS011;69573;45.560;10.200;2023-07-22T11:20:02;3.40;;;2.90;;
80270;SDS011;69573;45.560;10.200;2023-07-22T11:22:28;4.75;;;3.20;;
80270;SDS011;69573;45.560;10.200;2023-07-22T11:24:55;5.90;;;3.55;;
80270;SDS011;69573;45.560;10.200;2023-07-22T11:27:23;5.67;;;3.47;;
80270;SDS011;69573;45.560;10.200;2023-07-22T11:29:50;4.85;;;2.90;;
80270;SDS011;69573;45.560;10.200;2023-07-22T11:32:17;6.75;;;2.78;;
80270;SDS011;69573;45.560;10.200;2023-07-22T11:34:44;3.55;;;2.75;;
80270;SDS011;69573;45.560;10.200;2023-07-22T11:37:10;4.53;;;2.75;;
80270;SDS011;69573;45.560;10.200;2023-07-22T11:39:36;3.67;;;2.83;;
80270;SDS011;69573;45.560;10.200;2023-07-22T11:42:03;3.25;;;2.83;;
80270;SDS011;69573;45.560;10.200;2023-07-22T11:44:30;3.65;;;3.17;;
80270;SDS011;69573;45.560;10.200;2023-07-22T11:47:00;4.93;;;2.90;;
80270;SDS011;69573;45.560;10.200;2023-07-22T11:51:57;5.78;;;2.75;;
80270;SDS011;69573;45.560;10.200;2023-07-22T11:54:23;5.40;;;3.25;;
80270;SDS011;69573;45.560;10.200;2023-07-22T11:56:50;4.95;;;2.83;;
80270;SDS011;69573;45.560;10.200;2023-07-22T11:59:16;4.65;;;2.97;;
80270;SDS011;69573;45.560;10.200;2023-07-22T12:01:44;4.10;;;2.65;;
80270;SDS011;69573;45.560;10.200;2023-07-22T12:04:11;2.97;;;2.40;;
80270;SDS011;69573;45.560;10.200;2023-07-22T12:06:37;3.42;;;2.30;;
80270;SDS011;69573;45.560;10.200;2023-07-22T12:09:03;2.97;;;2.30;;
80270;SDS011;69573;45.560;10.200;2023-07-22T12:11:32;2.38;;;2.17;;
80270;SDS011;69573;45.560;10.200;2023-07-22T12:14:08;2.70;;;2.50;;
80270;SDS011;69573;45.560;10.200;2023-07-22T12:16:36;4.35;;;2.40;;
80270;SDS011;69573;45.560;10.200;2023-07-22T12:19:02;2.78;;;2.45;;
80270;SDS011;69573;45.560;10.200;2023-07-22T12:21:28;4.65;;;2.67;;
80270;SDS011;69573;45.560;10.200;2023-07-22T12:23:55;2.40;;;2.20;;
80270;SDS011;69573;45.560;10.200;2023-07-22T12:26:21;3.42;;;2.40;;
80270;SDS011;69573;45.560;10.200;2023-07-22T12:28:47;2.72;;;2.53;;
80270;SDS011;69573;45.560;10.200;2023-07-22T12:31:13;3.08;;;2.40;;
80270;SDS011;69573;45.560;10.200;2023-07-22T12:33:40;2.47;;;2.22;;
80270;SDS011;69573;45.560;10.200;2023-07-22T12:36:07;3.42;;;2.65;;
80270;SDS011;69573;45.560;10.200;2023-07-22T12:38:33;2.55;;;2.28;;
80270;SDS011;69573;45.560;10.200;2023-07-22T12:41:00;3.67;;;2.75;;
80270;SDS011;69573;45.560;10.200;2023-07-22T12:43:26;3.90;;;2.40;;
80270;SDS011;69573;45.560;10.200;2023-07-22T12:45:53;3.20;;;2.78;;
80270;SDS011;69573;45.560;10.200;2023-07-22T12:48:19;3.17;;;2.55;;
80270;SDS011;69573;45.560;10.200;2023-07-22T12:50:45;3.30;;;2.72;;
80270;SDS011;69573;45.560;10.200;2023-07-22T12:53:14;3.30;;;2.63;;
80270;SDS011;69573;45.560;10.200;2023-07-22T12:55:41;5.55;;;2.80;;
80270;SDS011;69573;45.560;10.200;2023-07-22T12:58:07;3.75;;;2.50;;
80270;SDS011;69573;45.560;10.200;2023-07-22T13:00:34;4.47;;;2.78;;
